sensor_id;sensor_type;location;lat;lon;timestamp;temperature;humidity
9437;DHT22;4757;59.334;18.034;2022-10-31T00:01:28;5.20;99.90
9437;DHT22;4757;59.334;18.034;2022-10-31T00:03:55;5.20;99.90
9437;DHT22;4757;59.334;18.034;2022-10-31T00:06:23;5.30;99.90
9437;DHT22;4757;59.334;18.034;2022-10-31T00:08:56;5.20;99.90
9437;DHT22;4757;59.334;18.034;2022-10-31T00:11:24;5.20;99.90
9437;DHT22;4757;59.334;18.034;2022-10-31T00:13:53;5.20;99.90
9437;DHT22;4757;59.334;18.034;2022-10-31T00:16:22;5.20;99.90
9437;DHT22;4757;59.334;18.034;2022-10-31T00:18:55;5.20;99.90
9437;DHT22;4757;59.334;18.034;2022-10-31T00:21:23;5.20;99.90
9437;DHT22;4757;59.334;18.034;2022-10-31T00:23:50;5.30;99.90
9437;DHT22;4757;59.334;18.034;2022-10-31T00:26:18;5.30;99.90
9437;DHT22;4757;59.334;18.034;2022-10-31T00:28:45;5.20;99.90
9437;DHT22;4757;59.334;18.034;2022-10-31T00:31:13;5.20;99.90
9437;DHT22;4757;59.334;18.034;2022-10-31T00:33:40;5.20;99.90
9437;DHT22;4757;59.334;18.034;2022-10-31T00:36:11;5.20;99.90
9437;DHT22;4757;59.334;18.034;2022-10-31T00:38:39;5.30;99.90
9437;DHT22;4757;59.334;18.034;2022-10-31T00:41:06;5.30;99.90
9437;DHT22;4757;59.334;18.034;2022-10-31T00:43:34;5.30;99.90
9437;DHT22;4757;59.334;18.034;2022-10-31T00:46:01;5.30;99.90
9437;DHT22;4757;59.334;18.034;2022-10-31T00:48:28;5.30;99.90
9437;DHT22;4757;59.334;18.034;2022-10-31T00:50:56;5.30;99.90
9437;DHT22;4757;59.334;18.034;2022-10-31T00:53:23;5.30;99.90
9437;DHT22;4757;59.334;18.034;2022-10-31T00:55:50;5.40;99.90
9437;DHT22;4757;59.334;18.034;2022-10-31T00:58:17;5.60;99.90
9437;DHT22;4757;59.334;18.034;2022-10-31T01:00:46;5.50;99.90
9437;DHT22;4757;59.334;18.034;2022-10-31T01:03:17;5.40;99.90
9437;DHT22;4757;59.334;18.034;2022-10-31T01:05:44;5.40;99.90
9437;DHT22;4757;59.334;18.034;2022-10-31T01:08:11;5.40;99.90
9437;DHT22;4757;59.334;18.034;2022-10-31T01:10:38;5.50;99.90
9437;DHT22;4757;59.334;18.034;2022-10-31T01:13:05;5.40;99.90
9437;DHT22;4757;59.334;18.034;2022-10-31T01:15:32;5.40;99.90
9437;DHT22;4757;59.334;18.034;2022-10-31T01:17:59;5.40;99.90
9437;DHT22;4757;59.334;18.034;2022-10-31T01:20:26;5.40;99.90
9437;DHT22;4757;59.334;18.034;2022-10-31T01:22:53;5.60;99.90
9437;DHT22;4757;59.334;18.034;2022-10-31T01:25:20;5.70;99.90
9437;DHT22;4757;59.334;18.034;2022-10-31T01:27:47;5.70;99.90
9437;DHT22;4757;59.334;18.034;2022-10-31T01:30:14;5.70;99.90
9437;DHT22;4757;59.334;18.034;2022-10-31T01:32:41;5.60;99.90
9437;DHT22;4757;59.334;18.034;2022-10-31T01:35:08;5.60;99.90
9437;DHT22;4757;59.334;18.034;2022-10-31T01:37:35;5.70;99.90
9437;DHT22;4757;59.334;18.034;2022-10-31T01:40:02;5.60;99.90
9437;DHT22;4757;59.334;18.034;2022-10-31T01:42:29;5.50;99.90
9437;DHT22;4757;59.334;18.034;2022-10-31T01:44:59;5.60;99.90
9437;DHT22;4757;59.334;18.034;2022-10-31T01:47:43;5.60;99.90
9437;DHT22;4757;59.334;18.034;2022-10-31T01:50:31;5.70;99.90
9437;DHT22;4757;59.334;18.034;2022-10-31T01:53:01;5.70;99.90
9437;DHT22;4757;59.334;18.034;2022-10-31T01:55:31;5.70;99.90
9437;DHT22;4757;59.334;18.034;2022-10-31T01:58:04;5.70;99.90
9437;DHT22;4757;59.334;18.034;2022-10-31T02:00:33;5.70;99.90
9437;DHT22;4757;59.334;18.034;2022-10-31T02:03:00;5.60;99.90
9437;DHT22;4757;59.334;18.034;2022-10-31T02:05:29;5.60;99.90
9437;DHT22;4757;59.334;18.034;2022-10-31T02:07:58;5.60;99.90
9437;DHT22;4757;59.334;18.034;2022-10-31T02:10:26;5.60;99.90
9437;DHT22;4757;59.334;18.034;2022-10-31T02:12:56;5.60;99.90
9437;DHT22;4757;59.334;18.034;2022-10-31T02:15:24;5.60;99.90
9437;DHT22;4757;59.334;18.034;2022-10-31T02:17:51;5.50;99.90
9437;DHT22;4757;59.334;18.034;2022-10-31T02:20:23;5.60;99.90
9437;DHT22;4757;59.334;18.034;2022-10-31T02:34:39;5.70;99.90
9437;DHT22;4757;59.334;18.034;2022-10-31T02:37:24;5.70;99.90
9437;DHT22;4757;59.334;18.034;2022-10-31T02:40:17;5.70;99.90
9437;DHT22;4757;59.334;18.034;2022-10-31T02:43:09;5.70;99.90
9437;DHT22;4757;59.334;18.034;2022-10-31T02:48:31;5.70;99.90
9437;DHT22;4757;59.334;18.034;2022-10-31T02:51:03;5.70;99.90
9437;DHT22;4757;59.334;18.034;2022-10-31T02:53:35;5.60;99.90
9437;DHT22;4757;59.334;18.034;2022-10-31T02:56:17;5.70;99.90
9437;DHT22;4757;59.334;18.034;2022-10-31T02:59:03;5.70;99.90
9437;DHT22;4757;59.334;18.034;2022-10-31T03:04:35;5.80;99.90
9437;DHT22;4757;59.334;18.034;2022-10-31T03:13:12;5.80;99.90
9437;DHT22;4757;59.334;18.034;2022-10-31T03:15:48;5.80;99.90
9437;DHT22;4757;59.334;18.034;2022-10-31T03:18:26;5.80;99.90
9437;DHT22;4757;59.334;18.034;2022-10-31T03:23:36;5.90;99.90
9437;DHT22;4757;59.334;18.034;2022-10-31T03:26:06;6.00;99.90
9437;DHT22;4757;59.334;18.034;2022-10-31T03:28:41;6.00;99.90
9437;DHT22;4757;59.334;18.034;2022-10-31T03:31:12;6.00;99.90
9437;DHT22;4757;59.334;18.034;2022-10-31T03:33:42;6.00;99.90
9437;DHT22;4757;59.334;18.034;2022-10-31T03:36:11;6.00;99.90
9437;DHT22;4757;59.334;18.034;2022-10-31T03:38:40;6.10;99.90
9437;DHT22;4757;59.334;18.034;2022-10-31T03:41:12;6.10;99.90
9437;DHT22;4757;59.334;18.034;2022-10-31T03:43:43;6.20;99.90
9437;DHT22;4757;59.334;18.034;2022-10-31T03:46:11;6.20;99.90
9437;DHT22;4757;59.334;18.034;2022-10-31T03:48:38;6.20;99.90
9437;DHT22;4757;59.334;18.034;2022-10-31T03:51:15;6.20;99.90
9437;DHT22;4757;59.334;18.034;2022-10-31T03:53:57;6.40;99.90
9437;DHT22;4757;59.334;18.034;2022-10-31T03:56:36;6.50;99.90
9437;DHT22;4757;59.334;18.034;2022-10-31T03:59:11;6.60;99.90
9437;DHT22;4757;59.334;18.034;2022-10-31T04:01:46;6.60;99.90
9437;DHT22;4757;59.334;18.034;2022-10-31T04:04:14;6.70;99.90
9437;DHT22;4757;59.334;18.034;2022-10-31T04:06:44;6.70;99.90
9437;DHT22;4757;59.334;18.034;2022-10-31T04:09:13;6.70;99.90
9437;DHT22;4757;59.334;18.034;2022-10-31T04:11:45;6.80;99.90
9437;DHT22;4757;59.334;18.034;2022-10-31T04:14:15;6.80;99.90
9437;DHT22;4757;59.334;18.034;2022-10-31T04:16:43;6.90;99.90
9437;DHT22;4757;59.334;18.034;2022-10-31T04:19:11;6.90;99.90
9437;DHT22;4757;59.334;18.034;2022-10-31T04:21:39;6.90;99.90
9437;DHT22;4757;59.334;18.034;2022-10-31T04:24:06;6.90;99.90
9437;DHT22;4757;59.334;18.034;2022-10-31T04:26:33;7.00;99.90
9437;DHT22;4757;59.334;18.034;2022-10-31T04:29:00;7.10;99.90
9437;DHT22;4757;59.334;18.034;2022-10-31T04:31:27;7.10;99.90
9437;DHT22;4757;59.334;18.034;2022-10-31T04:33:54;7.10;99.90
9437;DHT22;4757;59.334;18.034;2022-10-31T04:36:21;7.20;99.90
9437;DHT22;4757;59.334;18.034;2022-10-31T04:38:48;7.20;99.90
9437;DHT22;4757;59.334;18.034;2022-10-31T04:41:15;7.20;99.90
9437;DHT22;4757;59.334;18.034;2022-10-31T04:43:43;7.30;99.90
9437;DHT22;4757;59.334;18.034;2022-10-31T04:46:10;7.40;99.90
9437;DHT22;4757;59.334;18.034;2022-10-31T04:48:37;7.40;99.90
9437;DHT22;4757;59.334;18.034;2022-10-31T04:51:04;7.40;99.90
9437;DHT22;4757;59.334;18.034;2022-10-31T04:53:31;7.50;99.90
9437;DHT22;4757;59.334;18.034;2022-10-31T04:55:59;7.50;99.90
9437;DHT22;4757;59.334;18.034;2022-10-31T04:58:27;7.50;99.90
9437;DHT22;4757;59.334;18.034;2022-10-31T05:00:55;7.60;99.90
9437;DHT22;4757;59.334;18.034;2022-10-31T05:03:23;7.60;99.90
9437;DHT22;4757;59.334;18.034;2022-10-31T05:05:50;7.60;99.90
9437;DHT22;4757;59.334;18.034;2022-10-31T05:08:17;7.60;99.90
9437;DHT22;4757;59.334;18.034;2022-10-31T05:10:44;7.60;99.90
9437;DHT22;4757;59.334;18.034;2022-10-31T05:13:11;7.70;99.90
9437;DHT22;4757;59.334;18.034;2022-10-31T05:15:39;7.70;99.90
9437;DHT22;4757;59.334;18.034;2022-10-31T05:18:06;7.70;99.90
9437;DHT22;4757;59.334;18.034;2022-10-31T05:20:33;7.70;99.90
9437;DHT22;4757;59.334;18.034;2022-10-31T05:23:00;7.70;99.90
9437;DHT22;4757;59.334;18.034;2022-10-31T05:25:28;7.80;99.90
9437;DHT22;4757;59.334;18.034;2022-10-31T05:27:56;7.80;99.90
9437;DHT22;4757;59.334;18.034;2022-10-31T05:30:28;7.80;99.90
9437;DHT22;4757;59.334;18.034;2022-10-31T05:32:56;7.70;99.90
9437;DHT22;4757;59.334;18.034;2022-10-31T05:35:26;7.70;99.90
9437;DHT22;4757;59.334;18.034;2022-10-31T05:37:53;7.70;99.90
9437;DHT22;4757;59.334;18.034;2022-10-31T05:40:21;7.70;99.90
9437;DHT22;4757;59.334;18.034;2022-10-31T05:42:51;7.80;99.90
9437;DHT22;4757;59.334;18.034;2022-10-31T05:45:19;7.80;99.90
9437;DHT22;4757;59.334;18.034;2022-10-31T05:47:51;7.80;99.90
9437;DHT22;4757;59.334;18.034;2022-10-31T05:50:19;7.70;99.90
9437;DHT22;4757;59.334;18.034;2022-10-31T05:52:46;7.70;99.90
9437;DHT22;4757;59.334;18.034;2022-10-31T05:55:13;7.70;99.90
9437;DHT22;4757;59.334;18.034;2022-10-31T05:57:41;7.80;99.90
9437;DHT22;4757;59.334;18.034;2022-10-31T06:00:08;7.80;99.90
9437;DHT22;4757;59.334;18.034;2022-10-31T06:02:35;7.80;99.90
9437;DHT22;4757;59.334;18.034;2022-10-31T06:05:03;7.80;99.90
9437;DHT22;4757;59.334;18.034;2022-10-31T06:07:46;7.80;99.90
9437;DHT22;4757;59.334;18.034;2022-10-31T06:10:13;7.80;99.90
9437;DHT22;4757;59.334;18.034;2022-10-31T06:12:40;7.80;99.90
9437;DHT22;4757;59.334;18.034;2022-10-31T06:15:08;7.80;99.90
9437;DHT22;4757;59.334;18.034;2022-10-31T06:17:36;7.80;99.90
9437;DHT22;4757;59.334;18.034;2022-10-31T06:20:04;7.80;99.90
9437;DHT22;4757;59.334;18.034;2022-10-31T06:22:31;7.90;99.90
9437;DHT22;4757;59.334;18.034;2022-10-31T06:24:59;7.90;99.90
9437;DHT22;4757;59.334;18.034;2022-10-31T06:27:26;8.00;99.90
9437;DHT22;4757;59.334;18.034;2022-10-31T06:29:54;8.00;99.90
9437;DHT22;4757;59.334;18.034;2022-10-31T06:32:21;8.10;99.90
9437;DHT22;4757;59.334;18.034;2022-10-31T06:34:48;8.10;99.90
9437;DHT22;4757;59.334;18.034;2022-10-31T06:37:15;8.10;99.90
9437;DHT22;4757;59.334;18.034;2022-10-31T06:39:43;8.20;99.90
9437;DHT22;4757;59.334;18.034;2022-10-31T06:42:10;8.20;99.90
9437;DHT22;4757;59.334;18.034;2022-10-31T06:44:37;8.20;99.90
9437;DHT22;4757;59.334;18.034;2022-10-31T06:47:06;8.30;99.90
9437;DHT22;4757;59.334;18.034;2022-10-31T06:49:33;8.30;99.90
9437;DHT22;4757;59.334;18.034;2022-10-31T06:52:00;8.30;99.90
9437;DHT22;4757;59.334;18.034;2022-10-31T06:54:27;8.30;99.90
9437;DHT22;4757;59.334;18.034;2022-10-31T06:56:54;8.30;99.90
9437;DHT22;4757;59.334;18.034;2022-10-31T06:59:21;8.40;99.90
9437;DHT22;4757;59.334;18.034;2022-10-31T07:01:48;8.40;99.90
9437;DHT22;4757;59.334;18.034;2022-10-31T07:04:15;8.50;99.90
9437;DHT22;4757;59.334;18.034;2022-10-31T07:06:42;8.50;99.90
9437;DHT22;4757;59.334;18.034;2022-10-31T07:09:16;8.50;99.90
9437;DHT22;4757;59.334;18.034;2022-10-31T07:11:43;8.50;99.90
9437;DHT22;4757;59.334;18.034;2022-10-31T07:14:10;8.60;99.90
9437;DHT22;4757;59.334;18.034;2022-10-31T07:16:37;8.60;99.90
9437;DHT22;4757;59.334;18.034;2022-10-31T07:19:04;8.60;99.90
9437;DHT22;4757;59.334;18.034;2022-10-31T07:21:31;8.60;99.90
9437;DHT22;4757;59.334;18.034;2022-10-31T07:23:58;8.60;99.90
9437;DHT22;4757;59.334;18.034;2022-10-31T07:26:25;8.70;99.90
9437;DHT22;4757;59.334;18.034;2022-10-31T07:28:57;8.70;99.90
9437;DHT22;4757;59.334;18.034;2022-10-31T07:31:25;8.70;99.90
9437;DHT22;4757;59.334;18.034;2022-10-31T07:33:52;8.70;99.90
9437;DHT22;4757;59.334;18.034;2022-10-31T07:36:21;8.70;99.90
9437;DHT22;4757;59.334;18.034;2022-10-31T07:38:51;8.80;99.90
9437;DHT22;4757;59.334;18.034;2022-10-31T07:41:18;8.80;99.90
9437;DHT22;4757;59.334;18.034;2022-10-31T07:43:45;8.80;99.90
9437;DHT22;4757;59.334;18.034;2022-10-31T07:46:13;8.80;99.90
9437;DHT22;4757;59.334;18.034;2022-10-31T07:48:40;8.90;99.90
9437;DHT22;4757;59.334;18.034;2022-10-31T07:51:07;8.90;99.90
9437;DHT22;4757;59.334;18.034;2022-10-31T07:53:34;9.00;99.90
9437;DHT22;4757;59.334;18.034;2022-10-31T07:56:01;9.00;99.90
9437;DHT22;4757;59.334;18.034;2022-10-31T07:58:28;9.00;99.90
9437;DHT22;4757;59.334;18.034;2022-10-31T08:00:57;9.00;99.90
9437;DHT22;4757;59.334;18.034;2022-10-31T08:03:24;9.10;99.90
9437;DHT22;4757;59.334;18.034;2022-10-31T08:05:51;9.10;99.90
9437;DHT22;4757;59.334;18.034;2022-10-31T08:08:18;9.10;99.90
9437;DHT22;4757;59.334;18.034;2022-10-31T08:10:46;9.10;99.90
9437;DHT22;4757;59.334;18.034;2022-10-31T08:13:14;9.20;99.90
9437;DHT22;4757;59.334;18.034;2022-10-31T08:15:41;9.20;99.90
9437;DHT22;4757;59.334;18.034;2022-10-31T08:18:13;9.30;99.90
9437;DHT22;4757;59.334;18.034;2022-10-31T08:20:43;9.20;99.90
9437;DHT22;4757;59.334;18.034;2022-10-31T08:23:12;9.20;99.90
9437;DHT22;4757;59.334;18.034;2022-10-31T08:25:39;9.30;99.90
9437;DHT22;4757;59.334;18.034;2022-10-31T08:28:08;9.40;99.90
9437;DHT22;4757;59.334;18.034;2022-10-31T08:30:36;9.50;99.90
9437;DHT22;4757;59.334;18.034;2022-10-31T08:33:06;9.50;99.90
9437;DHT22;4757;59.334;18.034;2022-10-31T08:35:34;9.50;99.90
9437;DHT22;4757;59.334;18.034;2022-10-31T08:38:05;9.50;99.90
9437;DHT22;4757;59.334;18.034;2022-10-31T08:40:32;9.60;99.90
9437;DHT22;4757;59.334;18.034;2022-10-31T08:43:14;9.50;99.90
9437;DHT22;4757;59.334;18.034;2022-10-31T08:45:42;9.60;99.90
9437;DHT22;4757;59.334;18.034;2022-10-31T08:48:12;9.60;99.90
9437;DHT22;4757;59.334;18.034;2022-10-31T08:50:40;9.60;99.90
9437;DHT22;4757;59.334;18.034;2022-10-31T08:53:11;9.60;99.90
9437;DHT22;4757;59.334;18.034;2022-10-31T08:55:39;9.60;99.90
9437;DHT22;4757;59.334;18.034;2022-10-31T08:58:09;9.60;99.90
9437;DHT22;4757;59.334;18.034;2022-10-31T09:00:37;9.70;99.90
9437;DHT22;4757;59.334;18.034;2022-10-31T09:03:06;9.70;99.90
9437;DHT22;4757;59.334;18.034;2022-10-31T09:05:33;9.80;99.90
9437;DHT22;4757;59.334;18.034;2022-10-31T09:08:02;9.80;99.90
9437;DHT22;4757;59.334;18.034;2022-10-31T09:10:32;10.00;99.90
9437;DHT22;4757;59.334;18.034;2022-10-31T09:13:05;10.00;99.90
9437;DHT22;4757;59.334;18.034;2022-10-31T09:15:38;10.00;99.90
9437;DHT22;4757;59.334;18.034;2022-10-31T09:18:06;10.00;99.90
9437;DHT22;4757;59.334;18.034;2022-10-31T09:20:36;10.00;99.90
9437;DHT22;4757;59.334;18.034;2022-10-31T09:23:12;10.10;99.90
9437;DHT22;4757;59.334;18.034;2022-10-31T09:25:40;10.00;99.90
9437;DHT22;4757;59.334;18.034;2022-10-31T09:28:15;10.00;99.90
9437;DHT22;4757;59.334;18.034;2022-10-31T09:30:45;10.10;99.90
9437;DHT22;4757;59.334;18.034;2022-10-31T09:33:13;10.10;99.90
9437;DHT22;4757;59.334;18.034;2022-10-31T09:35:41;10.10;99.90
9437;DHT22;4757;59.334;18.034;2022-10-31T09:38:11;10.20;99.90
9437;DHT22;4757;59.334;18.034;2022-10-31T09:40:41;10.20;99.90
9437;DHT22;4757;59.334;18.034;2022-10-31T09:51:57;10.30;99.90
9437;DHT22;4757;59.334;18.034;2022-10-31T09:54:16;10.40;99.90
9437;DHT22;4757;59.334;18.034;2022-10-31T09:56:45;10.40;99.90
9437;DHT22;4757;59.334;18.034;2022-10-31T09:59:25;10.50;99.90
9437;DHT22;4757;59.334;18.034;2022-10-31T10:02:22;10.50;99.90
9437;DHT22;4757;59.334;18.034;2022-10-31T10:05:08;10.50;99.90
9437;DHT22;4757;59.334;18.034;2022-10-31T10:08:05;10.50;99.90
9437;DHT22;4757;59.334;18.034;2022-10-31T10:10:44;10.60;99.90
9437;DHT22;4757;59.334;18.034;2022-10-31T10:30:43;10.80;99.90
9437;DHT22;4757;59.334;18.034;2022-10-31T10:33:39;10.80;99.90
9437;DHT22;4757;59.334;18.034;2022-10-31T10:36:14;10.80;99.90
9437;DHT22;4757;59.334;18.034;2022-10-31T10:41:21;10.90;99.90
9437;DHT22;4757;59.334;18.034;2022-10-31T10:43:49;10.90;99.90
9437;DHT22;4757;59.334;18.034;2022-10-31T10:57:58;11.00;99.90
9437;DHT22;4757;59.334;18.034;2022-10-31T11:03:00;11.00;99.90
9437;DHT22;4757;59.334;18.034;2022-10-31T11:05:41;11.00;99.90
9437;DHT22;4757;59.334;18.034;2022-10-31T11:08:10;11.10;99.90
9437;DHT22;4757;59.334;18.034;2022-10-31T11:10:37;11.10;99.90
9437;DHT22;4757;59.334;18.034;2022-10-31T11:18:27;11.20;99.90
9437;DHT22;4757;59.334;18.034;2022-10-31T11:20:57;11.20;99.90
9437;DHT22;4757;59.334;18.034;2022-10-31T11:23:27;11.30;99.90
9437;DHT22;4757;59.334;18.034;2022-10-31T11:26:06;11.30;99.90
9437;DHT22;4757;59.334;18.034;2022-10-31T11:28:33;11.30;99.90
9437;DHT22;4757;59.334;18.034;2022-10-31T11:31:13;11.30;99.90
9437;DHT22;4757;59.334;18.034;2022-10-31T11:33:48;11.40;99.90
9437;DHT22;4757;59.334;18.034;2022-10-31T11:36:23;11.40;99.90
9437;DHT22;4757;59.334;18.034;2022-10-31T11:38:51;11.50;99.90
9437;DHT22;4757;59.334;18.034;2022-10-31T11:41:25;11.50;99.90
9437;DHT22;4757;59.334;18.034;2022-10-31T11:44:02;11.60;99.90
9437;DHT22;4757;59.334;18.034;2022-10-31T11:46:40;11.70;99.90
9437;DHT22;4757;59.334;18.034;2022-10-31T11:49:25;11.80;99.90
9437;DHT22;4757;59.334;18.034;2022-10-31T11:51:56;11.90;99.90
9437;DHT22;4757;59.334;18.034;2022-10-31T11:54:33;12.00;99.90
9437;DHT22;4757;59.334;18.034;2022-10-31T11:57:02;12.00;99.90
9437;DHT22;4757;59.334;18.034;2022-10-31T11:59:32;12.00;99.90
9437;DHT22;4757;59.334;18.034;2022-10-31T12:02:00;12.00;99.90
9437;DHT22;4757;59.334;18.034;2022-10-31T12:04:38;12.10;99.90
9437;DHT22;4757;59.334;18.034;2022-10-31T12:07:17;12.10;99.90
9437;DHT22;4757;59.334;18.034;2022-10-31T12:09:44;12.20;99.90
9437;DHT22;4757;59.334;18.034;2022-10-31T12:18:37;12.40;99.90
9437;DHT22;4757;59.334;18.034;2022-10-31T12:21:00;12.40;99.90
9437;DHT22;4757;59.334;18.034;2022-10-31T12:24:01;12.40;99.90
9437;DHT22;4757;59.334;18.034;2022-10-31T12:29:30;12.40;99.90
9437;DHT22;4757;59.334;18.034;2022-10-31T12:45:59;12.50;99.90
9437;DHT22;4757;59.334;18.034;2022-10-31T12:51:32;12.50;99.90
9437;DHT22;4757;59.334;18.034;2022-10-31T13:08:18;12.60;99.90
9437;DHT22;4757;59.334;18.034;2022-10-31T13:11:01;12.70;99.90
9437;DHT22;4757;59.334;18.034;2022-10-31T13:16:35;12.70;99.90
9437;DHT22;4757;59.334;18.034;2022-10-31T13:21:41;12.70;99.90
9437;DHT22;4757;59.334;18.034;2022-10-31T13:24:19;12.70;99.90
9437;DHT22;4757;59.334;18.034;2022-10-31T13:26:52;12.70;99.90
9437;DHT22;4757;59.334;18.034;2022-10-31T13:29:42;12.70;99.90
9437;DHT22;4757;59.334;18.034;2022-10-31T13:32:11;12.70;99.90
9437;DHT22;4757;59.334;18.034;2022-10-31T13:34:52;12.70;99.90
9437;DHT22;4757;59.334;18.034;2022-10-31T13:37:32;12.70;99.90
9437;DHT22;4757;59.334;18.034;2022-10-31T13:43:05;12.80;99.90
9437;DHT22;4757;59.334;18.034;2022-10-31T13:45:33;12.70;99.90
9437;DHT22;4757;59.334;18.034;2022-10-31T13:51:02;12.80;99.90
9437;DHT22;4757;59.334;18.034;2022-10-31T13:53:55;12.70;99.90
9437;DHT22;4757;59.334;18.034;2022-10-31T13:56:29;12.70;99.90
9437;DHT22;4757;59.334;18.034;2022-10-31T13:59:11;12.90;99.90
9437;DHT22;4757;59.334;18.034;2022-10-31T14:01:58;12.80;99.90
9437;DHT22;4757;59.334;18.034;2022-10-31T14:04:48;12.80;99.90
9437;DHT22;4757;59.334;18.034;2022-10-31T14:07:18;12.80;99.90
9437;DHT22;4757;59.334;18.034;2022-10-31T14:10:06;12.80;99.90
9437;DHT22;4757;59.334;18.034;2022-10-31T14:12:43;12.80;99.90
9437;DHT22;4757;59.334;18.034;2022-10-31T14:15:25;12.80;99.90
9437;DHT22;4757;59.334;18.034;2022-10-31T14:18:05;12.80;99.90
9437;DHT22;4757;59.334;18.034;2022-10-31T14:20:39;12.80;99.90
9437;DHT22;4757;59.334;18.034;2022-10-31T14:23:38;12.80;99.90
9437;DHT22;4757;59.334;18.034;2022-10-31T14:28:47;12.80;99.90
9437;DHT22;4757;59.334;18.034;2022-10-31T14:31:37;12.80;99.90
9437;DHT22;4757;59.334;18.034;2022-10-31T14:34:21;12.80;99.90
9437;DHT22;4757;59.334;18.034;2022-10-31T14:39:54;12.70;99.90
9437;DHT22;4757;59.334;18.034;2022-10-31T14:45:49;12.70;99.90
9437;DHT22;4757;59.334;18.034;2022-10-31T14:51:34;12.70;99.90
9437;DHT22;4757;59.334;18.034;2022-10-31T14:54:04;12.70;99.90
9437;DHT22;4757;59.334;18.034;2022-10-31T14:56:34;12.70;99.90
9437;DHT22;4757;59.334;18.034;2022-10-31T14:59:15;12.70;99.90
9437;DHT22;4757;59.334;18.034;2022-10-31T15:02:01;12.70;99.90
9437;DHT22;4757;59.334;18.034;2022-10-31T15:04:40;12.60;99.90
9437;DHT22;4757;59.334;18.034;2022-10-31T15:07:15;12.70;99.90
9437;DHT22;4757;59.334;18.034;2022-10-31T15:09:59;12.60;99.90
9437;DHT22;4757;59.334;18.034;2022-10-31T15:12:31;12.60;99.90
9437;DHT22;4757;59.334;18.034;2022-10-31T15:17:49;12.50;99.90
9437;DHT22;4757;59.334;18.034;2022-10-31T15:20:25;12.50;99.90
9437;DHT22;4757;59.334;18.034;2022-10-31T15:22:56;12.50;99.90
9437;DHT22;4757;59.334;18.034;2022-10-31T15:25:31;12.50;99.90
9437;DHT22;4757;59.334;18.034;2022-10-31T15:27:59;12.50;99.90
9437;DHT22;4757;59.334;18.034;2022-10-31T15:30:28;12.50;99.90
9437;DHT22;4757;59.334;18.034;2022-10-31T15:32:55;12.50;99.90
9437;DHT22;4757;59.334;18.034;2022-10-31T15:35:31;12.50;99.90
9437;DHT22;4757;59.334;18.034;2022-10-31T15:37:58;12.40;99.90
9437;DHT22;4757;59.334;18.034;2022-10-31T15:40:30;12.40;99.90
9437;DHT22;4757;59.334;18.034;2022-10-31T15:43:04;12.40;99.90
9437;DHT22;4757;59.334;18.034;2022-10-31T15:45:31;12.30;99.90
9437;DHT22;4757;59.334;18.034;2022-10-31T15:48:19;12.40;99.90
9437;DHT22;4757;59.334;18.034;2022-10-31T15:50:57;12.30;99.90
9437;DHT22;4757;59.334;18.034;2022-10-31T15:53:29;12.40;99.90
9437;DHT22;4757;59.334;18.034;2022-10-31T15:56:09;12.30;99.90
9437;DHT22;4757;59.334;18.034;2022-10-31T15:58:46;12.30;99.90
9437;DHT22;4757;59.334;18.034;2022-10-31T16:04:22;12.20;99.90
9437;DHT22;4757;59.334;18.034;2022-10-31T16:07:20;12.20;99.90
9437;DHT22;4757;59.334;18.034;2022-10-31T16:09:57;12.20;99.90
9437;DHT22;4757;59.334;18.034;2022-10-31T16:12:31;12.20;99.90
9437;DHT22;4757;59.334;18.034;2022-10-31T16:14:59;12.10;99.90
9437;DHT22;4757;59.334;18.034;2022-10-31T16:17:27;12.10;99.90
9437;DHT22;4757;59.334;18.034;2022-10-31T16:20:00;12.10;99.90
9437;DHT22;4757;59.334;18.034;2022-10-31T16:22:34;12.20;99.90
9437;DHT22;4757;59.334;18.034;2022-10-31T16:25:04;12.20;99.90
9437;DHT22;4757;59.334;18.034;2022-10-31T16:27:36;12.10;99.90
9437;DHT22;4757;59.334;18.034;2022-10-31T16:30:29;12.10;99.90
9437;DHT22;4757;59.334;18.034;2022-10-31T16:33:35;12.20;99.90
9437;DHT22;4757;59.334;18.034;2022-10-31T16:36:29;12.20;99.90
9437;DHT22;4757;59.334;18.034;2022-10-31T16:39:02;12.20;99.90
9437;DHT22;4757;59.334;18.034;2022-10-31T16:41:30;12.20;99.90
9437;DHT22;4757;59.334;18.034;2022-10-31T16:44:01;12.20;99.90
9437;DHT22;4757;59.334;18.034;2022-10-31T16:46:29;12.20;99.90
9437;DHT22;4757;59.334;18.034;2022-10-31T16:48:55;12.10;99.90
9437;DHT22;4757;59.334;18.034;2022-10-31T16:51:28;12.20;99.90
9437;DHT22;4757;59.334;18.034;2022-10-31T16:53:55;12.10;99.90
9437;DHT22;4757;59.334;18.034;2022-10-31T16:56:34;12.20;99.90
9437;DHT22;4757;59.334;18.034;2022-10-31T16:59:05;12.10;99.90
9437;DHT22;4757;59.334;18.034;2022-10-31T17:01:40;12.10;99.90
9437;DHT22;4757;59.334;18.034;2022-10-31T17:04:13;12.00;99.90
9437;DHT22;4757;59.334;18.034;2022-10-31T17:06:41;12.00;99.90
9437;DHT22;4757;59.334;18.034;2022-10-31T17:09:08;12.00;99.90
9437;DHT22;4757;59.334;18.034;2022-10-31T17:11:36;12.00;99.90
9437;DHT22;4757;59.334;18.034;2022-10-31T17:14:11;11.90;99.90
9437;DHT22;4757;59.334;18.034;2022-10-31T17:16:38;11.90;99.90
9437;DHT22;4757;59.334;18.034;2022-10-31T17:19:05;11.90;99.90
9437;DHT22;4757;59.334;18.034;2022-10-31T17:21:35;11.90;99.90
9437;DHT22;4757;59.334;18.034;2022-10-31T17:24:02;11.90;99.90
9437;DHT22;4757;59.334;18.034;2022-10-31T17:26:29;11.80;99.90
9437;DHT22;4757;59.334;18.034;2022-10-31T17:28:56;11.80;99.90
9437;DHT22;4757;59.334;18.034;2022-10-31T17:31:29;11.80;99.90
9437;DHT22;4757;59.334;18.034;2022-10-31T17:33:58;11.80;99.90
9437;DHT22;4757;59.334;18.034;2022-10-31T17:36:29;11.80;99.90
9437;DHT22;4757;59.334;18.034;2022-10-31T17:38:57;11.80;99.90
9437;DHT22;4757;59.334;18.034;2022-10-31T17:41:25;11.80;99.90
9437;DHT22;4757;59.334;18.034;2022-10-31T17:43:59;11.70;99.90
9437;DHT22;4757;59.334;18.034;2022-10-31T17:46:28;11.80;99.90
9437;DHT22;4757;59.334;18.034;2022-10-31T17:48:55;11.80;99.90
9437;DHT22;4757;59.334;18.034;2022-10-31T17:51:22;11.80;99.90
9437;DHT22;4757;59.334;18.034;2022-10-31T17:53:49;11.80;99.90
9437;DHT22;4757;59.334;18.034;2022-10-31T17:56:16;11.70;99.90
9437;DHT22;4757;59.334;18.034;2022-10-31T17:58:43;11.70;99.90
9437;DHT22;4757;59.334;18.034;2022-10-31T18:01:12;11.70;99.90
9437;DHT22;4757;59.334;18.034;2022-10-31T18:03:40;11.70;99.90
9437;DHT22;4757;59.334;18.034;2022-10-31T18:06:07;11.60;99.90
9437;DHT22;4757;59.334;18.034;2022-10-31T18:08:37;11.60;99.90
9437;DHT22;4757;59.334;18.034;2022-10-31T18:11:09;11.60;99.90
9437;DHT22;4757;59.334;18.034;2022-10-31T18:13:37;11.60;99.90
9437;DHT22;4757;59.334;18.034;2022-10-31T18:16:10;11.60;99.90
9437;DHT22;4757;59.334;18.034;2022-10-31T18:18:38;11.60;99.90
9437;DHT22;4757;59.334;18.034;2022-10-31T18:21:06;11.50;99.90
9437;DHT22;4757;59.334;18.034;2022-10-31T18:23:33;11.50;99.90
9437;DHT22;4757;59.334;18.034;2022-10-31T18:26:00;11.50;99.90
9437;DHT22;4757;59.334;18.034;2022-10-31T18:28:28;11.50;99.90
9437;DHT22;4757;59.334;18.034;2022-10-31T18:30:58;11.50;99.90
9437;DHT22;4757;59.334;18.034;2022-10-31T18:33:26;11.50;99.90
9437;DHT22;4757;59.334;18.034;2022-10-31T18:35:54;11.40;99.90
9437;DHT22;4757;59.334;18.034;2022-10-31T18:38:22;11.40;99.90
9437;DHT22;4757;59.334;18.034;2022-10-31T18:40:50;11.40;99.90
9437;DHT22;4757;59.334;18.034;2022-10-31T18:43:17;11.40;99.90
9437;DHT22;4757;59.334;18.034;2022-10-31T18:45:44;11.40;99.90